createdAt,value
2022-10-28T00:01:30.849Z,96664.56
2022-10-28T00:07:22.038Z,96658.53
2022-10-28T00:15:47.481Z,96670.28
2022-10-28T00:18:37.652Z,96682.97
2022-10-28T00:27:00.456Z,96690.00
2022-10-28T00:32:31.521Z,96687.15
2022-10-28T00:38:19.741Z,96679.62
2022-10-28T00:43:51.854Z,96677.61
2022-10-28T00:49:33.308Z,96678.94
2022-10-28T00:55:10.674Z,96678.25
2022-10-28T00:58:00.861Z,96679.00
2022-10-28T01:03:38.439Z,96679.86
2022-10-28T01:09:15.566Z,96683.83
2022-10-28T01:14:59.096Z,96671.41
2022-10-28T01:20:59.945Z,96675.53
2022-10-28T01:30:10.942Z,96673.98
2022-10-28T01:35:53.868Z,96670.54
2022-10-28T01:38:46.004Z,96668.70
2022-10-28T01:44:27.017Z,96651.78
2022-10-28T01:53:09.585Z,96650.83
2022-10-28T01:58:41.046Z,96654.19
2022-10-28T02:04:20.188Z,96659.48
2022-10-28T02:09:56.952Z,96662.77
2022-10-28T02:12:46.478Z,96659.08
2022-10-28T02:21:08.510Z,96656.49
2022-10-28T02:26:48.717Z,96655.90
2022-10-28T02:35:22.394Z,96660.68
2022-10-28T02:43:55.168Z,96650.80
2022-10-28T02:49:28.064Z,96641.97
2022-10-28T02:52:17.800Z,96644.00
2022-10-28T02:57:49.562Z,96658.93
2022-10-28T03:03:20.139Z,96657.75
2022-10-28T03:08:51.365Z,96656.35
2022-10-28T03:17:08.204Z,96651.34
2022-10-28T03:22:46.855Z,96649.02
2022-10-28T03:28:17.998Z,96645.17
2022-10-28T03:31:06.978Z,96648.22
2022-10-28T03:36:44.190Z,96639.87
2022-10-28T03:42:18.163Z,96638.21
2022-10-28T03:45:08.978Z,96642.69
2022-10-28T03:53:29.008Z,96650.03
2022-10-28T03:59:05.943Z,96652.52
2022-10-28T04:04:35.495Z,96645.95
2022-10-28T04:07:23.695Z,96645.70
2022-10-28T04:10:12.782Z,96651.67
2022-10-28T04:13:02.701Z,96662.55
2022-10-28T04:18:29.732Z,96648.89
2022-10-28T04:24:00.995Z,96640.48
2022-10-28T04:29:34.242Z,96650.16
2022-10-28T04:35:11.873Z,96643.20
2022-10-28T04:40:42.988Z,96636.86
2022-10-28T04:46:18.774Z,96654.80
2022-10-28T04:51:48.112Z,96648.72
2022-10-28T04:57:23.816Z,96640.22
2022-10-28T05:02:55.633Z,96632.08
2022-10-28T05:08:28.490Z,96649.36
2022-10-28T05:14:00.573Z,96640.97
2022-10-28T05:16:49.441Z,96644.16
2022-10-28T05:22:24.005Z,96625.67
2022-10-28T05:28:01.296Z,96626.64
2022-10-28T05:33:37.124Z,96633.05
2022-10-28T05:39:15.113Z,96631.84
2022-10-28T05:44:51.835Z,96640.33
2022-10-28T05:50:35.468Z,96645.11
2022-10-28T05:53:23.651Z,96650.80
2022-10-28T05:58:59.605Z,96644.17
2022-10-28T06:01:48.158Z,96653.20
2022-10-28T06:10:12.000Z,96642.60
2022-10-28T06:12:59.400Z,96648.05
2022-10-28T06:18:32.471Z,96648.08
2022-10-28T06:24:03.432Z,96650.70
2022-10-28T06:29:31.801Z,96673.60
2022-10-28T06:32:21.048Z,96675.45
2022-10-28T06:38:09.555Z,96668.89
2022-10-28T06:43:43.651Z,96679.14
2022-10-28T06:46:34.059Z,96684.16
2022-10-28T06:52:08.485Z,96675.69
2022-10-28T06:57:44.950Z,96645.14
2022-10-28T07:03:23.040Z,96645.75
2022-10-28T07:09:03.894Z,96669.27
2022-10-28T07:14:39.851Z,96700.92
2022-10-28T07:20:16.277Z,96674.47
2022-10-28T07:25:56.245Z,96685.59
2022-10-28T07:28:44.559Z,96680.05
2022-10-28T07:34:13.519Z,96685.31
2022-10-28T07:37:06.058Z,96699.45
2022-10-28T07:42:42.175Z,96686.19
2022-10-28T07:48:21.434Z,96720.44
2022-10-28T07:56:41.082Z,96708.55
2022-10-28T08:02:07.083Z,96686.16
2022-10-28T08:04:56.681Z,96691.63
2022-10-28T08:10:35.254Z,96705.02
2022-10-28T08:13:23.478Z,96709.14
2022-10-28T08:19:07.549Z,96702.02
2022-10-28T08:21:55.223Z,96703.84
2022-10-28T08:24:43.977Z,96707.28
2022-10-28T08:30:21.043Z,96703.75
2022-10-28T08:35:54.232Z,96711.58
2022-10-28T08:41:36.643Z,96712.92
2022-10-28T08:47:33.644Z,96711.03
2022-10-28T08:53:16.182Z,96706.79
2022-10-28T08:59:25.512Z,96709.45
2022-10-28T09:02:21.872Z,96707.72
2022-10-28T09:08:15.119Z,96717.52
2022-10-28T09:14:12.128Z,96704.89
2022-10-28T09:17:06.783Z,96708.84
2022-10-28T09:22:44.000Z,96716.43
2022-10-28T09:28:41.624Z,96722.64
2022-10-28T09:34:22.619Z,96733.40
2022-10-28T09:40:10.482Z,96730.30
2022-10-28T09:45:56.940Z,96715.04
2022-10-28T09:51:37.898Z,96725.77
2022-10-28T09:57:06.707Z,96722.97
2022-10-28T10:02:42.639Z,96730.89
2022-10-28T10:11:28.801Z,96741.80
2022-10-28T10:14:19.312Z,96744.45
2022-10-28T10:17:13.085Z,96746.27
2022-10-28T10:22:51.168Z,96737.31
2022-10-28T10:28:21.161Z,96725.42
2022-10-28T10:31:19.168Z,96729.81
2022-10-28T10:39:43.483Z,96724.66
2022-10-28T10:42:39.133Z,96712.31
2022-10-28T10:45:25.967Z,96694.35
2022-10-28T10:48:16.063Z,96711.91
2022-10-28T10:53:49.223Z,96722.17
2022-10-28T10:59:23.955Z,96721.36
2022-10-28T11:05:06.533Z,96709.59
2022-10-28T11:07:56.513Z,96711.14
2022-10-28T11:10:45.642Z,96699.66
2022-10-28T11:16:25.714Z,96676.69
2022-10-28T11:22:20.651Z,96672.84
2022-10-28T11:28:49.340Z,96650.91
2022-10-28T11:34:44.173Z,96653.94
2022-10-28T11:40:32.582Z,96655.52
2022-10-28T11:46:12.334Z,96649.73
2022-10-28T11:49:26.385Z,96646.88
2022-10-28T11:55:17.127Z,96637.19
2022-10-28T12:01:16.426Z,96629.16
2022-10-28T12:04:19.190Z,96617.58
2022-10-28T12:07:22.383Z,96619.47
2022-10-28T12:10:19.251Z,96612.33
2022-10-28T12:16:01.758Z,96620.59
2022-10-28T12:18:52.517Z,96620.26
2022-10-28T12:21:42.789Z,96623.99
2022-10-28T12:27:23.877Z,96622.31
2022-10-28T12:30:20.487Z,96623.09
2022-10-28T12:33:12.712Z,96613.09
2022-10-28T12:38:58.594Z,96610.87
2022-10-28T12:44:37.091Z,96602.92
2022-10-28T12:47:28.181Z,96608.46
2022-10-28T12:50:20.513Z,96603.86
2022-10-28T12:56:10.756Z,96607.04
2022-10-28T13:01:51.913Z,96597.70
2022-10-28T13:07:39.997Z,96600.03
2022-10-28T13:13:29.492Z,96593.91
2022-10-28T13:16:35.151Z,96591.58
2022-10-28T13:19:41.244Z,96595.05
2022-10-28T13:26:12.010Z,96591.67
2022-10-28T13:29:03.280Z,96582.11
2022-10-28T13:34:46.470Z,96591.00
2022-10-28T13:37:39.265Z,96592.41
2022-10-28T13:41:04.021Z,96590.13
2022-10-28T13:44:01.343Z,96593.31
2022-10-28T13:50:48.312Z,96589.37
2022-10-28T13:56:31.937Z,96578.48
2022-10-28T13:59:29.951Z,96578.35
2022-10-28T14:02:35.557Z,96575.41
2022-10-28T14:05:28.110Z,96565.73
2022-10-28T14:11:21.584Z,96573.41
2022-10-28T14:17:39.693Z,96575.08
2022-10-28T14:23:51.538Z,96582.69
2022-10-28T14:27:16.047Z,96582.17
2022-10-28T14:30:24.835Z,96579.51
2022-10-28T14:36:16.771Z,96585.13
2022-10-28T14:39:24.157Z,96588.62
2022-10-28T14:45:21.580Z,96592.20
2022-10-28T14:48:28.454Z,96589.06
2022-10-28T14:54:05.340Z,96591.64
2022-10-28T14:59:45.387Z,96587.64
2022-10-28T15:05:25.705Z,96588.11
2022-10-28T15:08:15.201Z,96586.14
2022-10-28T15:11:05.151Z,96583.48
2022-10-28T15:13:54.899Z,96581.70
2022-10-28T15:16:48.672Z,96576.66
2022-10-28T15:19:38.326Z,96576.05
2022-10-28T15:22:33.129Z,96567.86
2022-10-28T15:25:23.762Z,96574.24
2022-10-28T15:28:13.479Z,96570.79
2022-10-28T15:31:03.222Z,96563.20
2022-10-28T15:33:51.570Z,96563.68
2022-10-28T15:36:49.725Z,96554.34
2022-10-28T15:39:38.105Z,96551.77
2022-10-28T15:42:38.545Z,96553.36
2022-10-28T15:45:30.140Z,96551.27
2022-10-28T15:51:14.823Z,96546.81
2022-10-28T15:56:59.629Z,96558.83
2022-10-28T15:59:47.898Z,96555.66
2022-10-28T16:02:45.468Z,96553.91
2022-10-28T16:08:41.421Z,96552.83
2022-10-28T16:14:37.845Z,96548.45
2022-10-28T16:20:18.532Z,96549.81
2022-10-28T16:23:05.573Z,96555.64
2022-10-28T16:25:53.776Z,96552.08
2022-10-28T16:34:19.432Z,96557.67
2022-10-28T16:37:19.998Z,96559.30
2022-10-28T16:45:41.054Z,96569.91
2022-10-28T16:51:19.909Z,96572.09
2022-10-28T16:56:48.886Z,96587.66
2022-10-28T17:02:25.149Z,96592.02
2022-10-28T17:07:58.940Z,96595.25
2022-10-28T17:13:25.370Z,96604.95
2022-10-28T17:16:14.202Z,96601.02
2022-10-28T17:19:04.231Z,96605.35
2022-10-28T17:24:36.348Z,96609.70
2022-10-28T17:30:11.800Z,96614.17
2022-10-28T17:35:41.914Z,96619.11
2022-10-28T17:38:30.654Z,96621.66
2022-10-28T17:41:19.235Z,96615.95
2022-10-28T17:44:09.226Z,96616.41
2022-10-28T17:47:00.220Z,96610.48
2022-10-28T17:52:40.158Z,96610.02
2022-10-28T17:58:15.673Z,96620.78
2022-10-28T18:03:46.727Z,96619.38
2022-10-28T18:09:28.235Z,96622.12
2022-10-28T18:12:21.485Z,96623.98
2022-10-28T18:17:56.595Z,96614.50
2022-10-28T18:20:55.007Z,96621.24
2022-10-28T18:26:31.135Z,96620.29
2022-10-28T18:32:04.644Z,96620.65
2022-10-28T18:34:53.902Z,96629.45
2022-10-28T18:40:30.931Z,96630.36
2022-10-28T18:46:06.865Z,96631.97
2022-10-28T18:49:06.619Z,96628.45
2022-10-28T18:51:54.918Z,96626.48
2022-10-28T18:54:44.010Z,96626.03
2022-10-28T18:57:35.758Z,96630.59
2022-10-28T19:00:25.607Z,96632.55
2022-10-28T19:06:05.317Z,96640.33
2022-10-28T19:12:11.783Z,96640.20
2022-10-28T19:17:40.395Z,96644.81
2022-10-28T19:23:15.764Z,96643.90
2022-10-28T19:29:11.700Z,96645.28
2022-10-28T19:32:08.202Z,96645.60
2022-10-28T19:34:58.425Z,96642.53
2022-10-28T19:37:46.874Z,96643.90
2022-10-28T19:40:39.117Z,96645.73
2022-10-28T19:43:31.677Z,96649.25
2022-10-28T19:46:26.887Z,96644.59
2022-10-28T19:49:28.700Z,96658.49
2022-10-28T19:55:14.446Z,96667.17
2022-10-28T20:00:50.671Z,96662.84
2022-10-28T20:06:29.059Z,96658.59
2022-10-28T20:09:28.662Z,96657.68
2022-10-28T20:15:29.272Z,96650.28
2022-10-28T20:18:18.843Z,96661.00
2022-10-28T20:24:10.403Z,96661.22
2022-10-28T20:36:28.086Z,96673.77
2022-10-28T20:42:18.391Z,96671.25
2022-10-28T20:45:08.699Z,96675.14
2022-10-28T20:51:12.114Z,96678.55
2022-10-28T20:56:56.197Z,96681.39
2022-10-28T21:00:17.019Z,96674.21
2022-10-28T21:03:04.055Z,96672.84
2022-10-28T21:05:56.732Z,96670.32
2022-10-28T21:11:32.464Z,96673.30
2022-10-28T21:17:08.586Z,96673.98
2022-10-28T21:22:44.433Z,96677.36
2022-10-28T21:25:33.514Z,96673.47
2022-10-28T21:28:22.621Z,96678.70
2022-10-28T21:34:04.473Z,96685.34
2022-10-28T21:39:39.769Z,96684.87
2022-10-28T21:42:30.918Z,96685.80
2022-10-28T21:45:20.774Z,96677.55
2022-10-28T21:48:09.116Z,96682.77
2022-10-28T21:53:45.435Z,96672.57
2022-10-28T21:56:33.883Z,96679.17
2022-10-28T21:59:24.394Z,96676.78
2022-10-28T22:04:56.786Z,96676.20
2022-10-28T22:07:45.078Z,96667.11
2022-10-28T22:10:35.989Z,96674.64
2022-10-28T22:16:17.838Z,96662.52
2022-10-28T22:21:46.226Z,96669.03
2022-10-28T22:27:19.827Z,96661.38
2022-10-28T22:30:13.635Z,96668.13
2022-10-28T22:35:58.519Z,96672.19
2022-10-28T22:41:34.886Z,96672.63
2022-10-28T22:47:10.094Z,96669.58
2022-10-28T22:49:59.019Z,96664.34
2022-10-28T22:52:48.611Z,96666.41
2022-10-28T22:58:26.428Z,96666.84
2022-10-28T23:04:02.588Z,96662.98
2022-10-28T23:06:51.835Z,96659.62
2022-10-28T23:12:23.685Z,96658.53
2022-10-28T23:17:53.862Z,96654.28
2022-10-28T23:23:22.643Z,96643.16
2022-10-28T23:28:57.076Z,96647.89
2022-10-28T23:34:32.078Z,96643.47
2022-10-28T23:40:05.142Z,96644.69
2022-10-28T23:45:34.074Z,96643.70
2022-10-28T23:51:10.637Z,96649.39
2022-10-28T23:56:53.260Z,96643.55
